Terminal Aerodrome Forecast
Issued by NWS

Home | Current Version | Previous Version | Text Only | Print | Product List | Glossary On
Versions: 1 2 3 4 5 6 7 8 9 10 11 12 13 14 15 16 17
000
FTUS46 KLOX 281700
TAFOXR
TAF
KOXR 281735Z 2818/2918 18004KT P6SM FEW005
     FM282000 27012KT P6SM SKC
     FM290300 VRB03KT P6SM SKC
     FM291000 VRB03KT 3SM BR OVC006
     FM291100 VRB03KT 1SM BR OVC004
     FM291600 VRB03KT 5SM BR SCT005=

USA.gov is the U.S. government's official web portal to all federal, state and local government web resources and services.